Weather reports worldwide

Advertisment
Palma/Son Bonet, Spain (8302): temperature & dewpoint: 16.07.2019 02:00:00 - 22.07.2019 02:00:00 (CEST)Palma/Son Bonet, Spain (8302): wind speed: 16.07.2019 02:00:00 - 22.07.2019 02:00:00 (CEST)Palma/Son Bonet, Spain (8302): wind direction: 16.07.2019 02:00:00 - 22.07.2019 02:00:00 (CEST)Palma/Son Bonet, Spain (8302): visibility: 16.07.2019 02:00:00 - 22.07.2019 02:00:00 (CEST)
Date & Time tt [°C] td [°C] ff [km/h] ff [kn] dd vv [km]
22.07.2019 02:00:00 26,0 18,0 8 4 NNE 10
22.07.2019 01:00:00 26,0 17,0 5 3 NE 10
22.07.2019 00:00:00 26,0 14,0 8 4 ENE 10
21.07.2019 23:00:00 28,0 14,0 4 2 ENE 10
21.07.2019 22:00:00 29,0 13,0 8 4 ENE 10
21.07.2019 21:00:00 31,0 14,0 13 7 ESE 10
21.07.2019 20:00:00 33,0 13,0 15 8 ESE 10
21.07.2019 19:00:00 34,0 11,0 16 9 ESE 10
21.07.2019 18:00:00 35,0 12,0 15 8 ESE 10
21.07.2019 17:00:00 35,0 12,0 16 9 E 10
21.07.2019 16:00:00 35,0 10,0 21 11 E 10
21.07.2019 15:00:00 35,0 10,0 21 11 E 10
21.07.2019 14:00:00 35,0 13,0 18 10 SE 10
21.07.2019 13:00:00 34,0 12,0 18 10 SE 10
21.07.2019 12:00:00 33,0 15,0 15 8 E 10
21.07.2019 11:00:00 31,0 19,0 18 10 E 10
21.07.2019 10:00:00 29,0 19,0 21 11 ENE 10
21.07.2019 09:00:00 27,0 21,0 21 11 E 10
21.07.2019 08:00:00 25,0 21,0 16 9 ENE 10
21.07.2019 07:00:00 24,0 19,0 16 9 ENE 10
21.07.2019 06:00:00 24,0 12,0 9 5 N 10
21.07.2019 05:00:00 24,0 12,0 8 4 N 10
21.07.2019 04:00:00 24,0 12,0 9 5 N 10
21.07.2019 03:00:00 24,0 12,0 5 3 N 10
21.07.2019 02:00:00 25,0 13,0 5 3 WNW 10
21.07.2019 01:00:00 26,0 10,0 9 5 ENE 10
21.07.2019 00:00:00 27,0 13,0 9 5 NE 10
20.07.2019 23:00:00 27,0 16,0 11 6 ENE 10
20.07.2019 22:00:00 28,0 15,0 13 7 ENE 10
20.07.2019 21:00:00 30,0 14,0 16 9 E 10
20.07.2019 20:00:00 32,0 15,0 18 10 E 10
20.07.2019 19:00:00 33,0 15,0 18 10 ESE 10
20.07.2019 18:00:00 34,0 15,0 21 11 ESE 10
20.07.2019 17:00:00 35,0 15,0 21 11 E 10
20.07.2019 16:00:00 36,0 15,0 15 8 ESE 10
20.07.2019 15:00:00 33,0 20,0 18 10 WSW 10
20.07.2019 14:00:00 33,0 18,0 21 11 SW 10
20.07.2019 13:00:00 34,0 15,0 15 8 SE 10
20.07.2019 12:00:00 33,0 16,0 13 7 ENE 10
20.07.2019 11:00:00 31,0 17,0 13 7 ESE 10
20.07.2019 10:00:00 29,0 18,0 15 8 E 10
20.07.2019 09:00:00 28,0 17,0 21 11 ENE 10
20.07.2019 08:00:00 26,0 18,0 8 4 NNE 10
20.07.2019 07:00:00 22,0 15,0 8 4 N 10
20.07.2019 06:00:00 22,0 16,0 9 5 NNW 10
20.07.2019 05:00:00 24,0 19,0 8 4 NE 10
20.07.2019 04:00:00 24,0 20,0 5 3 ENE 10
20.07.2019 03:00:00 24,0 20,0 8 4 NE 10
20.07.2019 02:00:00 25,0 19,0 9 5 NE 10
20.07.2019 01:00:00 25,0 19,0 8 4 ENE 10
20.07.2019 00:00:00 25,0 19,0 5 3 ENE 10
19.07.2019 23:00:00 26,0 18,0 8 4 ESE 10
19.07.2019 22:00:00 27,0 17,0 8 4 E 10
19.07.2019 21:00:00 28,0 19,0 5 3 W 10
19.07.2019 20:00:00 29,0 19,0 15 8 SW 10
19.07.2019 19:00:00 29,0 18,0 18 10 SW 10
19.07.2019 18:00:00 29,0 16,0 22 12 SW 10
19.07.2019 17:00:00 30,0 18,0 24 13 SW 10
19.07.2019 16:00:00 30,0 16,0 22 12 SSW 10
19.07.2019 15:00:00 30,0 17,0 26 14 SW 10
19.07.2019 14:00:00 30,0 16,0 24 13 SW 10
19.07.2019 13:00:00 30,0 18,0 24 13 SW 10
19.07.2019 12:00:00 30,0 19,0 22 12 SSW 10
19.07.2019 11:00:00 30,0 14,0 5 3 - 10
19.07.2019 10:00:00 28,0 15,0 5 3 SSE 10
19.07.2019 09:00:00 27,0 15,0 2 1 - 10
19.07.2019 08:00:00 24,0 14,0 4 2 - 10
19.07.2019 07:00:00 21,0 14,0 5 3 NNW 10
19.07.2019 06:00:00 22,0 13,0 5 3 N 10
19.07.2019 05:00:00 21,0 13,0 8 4 N 10
19.07.2019 04:00:00 22,0 14,0 8 4 N 10
19.07.2019 03:00:00 22,0 14,0 8 4 N 10
19.07.2019 02:00:00 23,0 14,0 8 4 NNW 10
19.07.2019 01:00:00 24,0 14,0 8 4 NNW 10
19.07.2019 00:00:00 25,0 16,0 5 3 N 10
18.07.2019 23:00:00 25,0 19,0 2 1 - 10
18.07.2019 22:00:00 25,0 19,0 4 2 S 10
18.07.2019 21:00:00 26,0 19,0 9 5 SSW 10
18.07.2019 20:00:00 27,0 18,0 15 8 SSW 10
18.07.2019 19:00:00 28,0 15,0 18 10 SW 10
18.07.2019 18:00:00 29,0 14,0 18 10 SSW 10
18.07.2019 17:00:00 30,0 12,0 22 12 SW 10
18.07.2019 16:00:00 30,0 10,0 26 14 SW 10
18.07.2019 15:00:00 30,0 13,0 26 14 SSW 10
18.07.2019 14:00:00 29,0 15,0 29 16 SSW 10
18.07.2019 13:00:00 31,0 14,0 26 14 SSW 10
18.07.2019 12:00:00 31,0 14,0 16 9 SSW 10
18.07.2019 11:00:00 30,0 14,0 5 3 SSW 10
18.07.2019 10:00:00 29,0 15,0 5 3 E 10
18.07.2019 09:00:00 27,0 15,0 11 6 NE 10
18.07.2019 08:00:00 24,0 16,0 4 2 - 10
18.07.2019 07:00:00 22,0 15,0 4 2 NNE 10
18.07.2019 06:00:00 22,0 15,0 4 2 - 10
18.07.2019 05:00:00 23,0 15,0 4 2 - 10
18.07.2019 04:00:00 22,0 16,0 9 5 N 10
18.07.2019 03:00:00 23,0 15,0 5 3 N 10
18.07.2019 02:00:00 23,0 16,0 9 5 NNW 10
18.07.2019 01:00:00 24,0 16,0 5 3 NE 10
18.07.2019 00:00:00 25,0 15,0 4 2 E 10
17.07.2019 23:00:00 26,0 17,0 2 1 - 10
17.07.2019 22:00:00 26,0 17,0 9 5 SW 10
17.07.2019 21:00:00 27,0 16,0 9 5 WSW 10
17.07.2019 20:00:00 27,0 15,0 16 9 SW 10
17.07.2019 19:00:00 28,0 17,0 22 12 SW 10
17.07.2019 18:00:00 29,0 16,0 22 12 SW 10
17.07.2019 17:00:00 29,0 15,0 22 12 SW 10
17.07.2019 16:00:00 30,0 15,0 24 13 SW 10
17.07.2019 15:00:00 30,0 16,0 26 14 SW 10
17.07.2019 14:00:00 30,0 15,0 24 13 SSW 10
17.07.2019 13:00:00 30,0 16,0 21 11 SW 10
17.07.2019 12:00:00 30,0 14,0 13 7 SSW 10
17.07.2019 11:00:00 29,0 12,0 8 4 W 10
17.07.2019 10:00:00 29,0 11,0 5 3 - 10
17.07.2019 09:00:00 26,0 12,0 4 2 - 10
17.07.2019 08:00:00 23,0 13,0 5 3 N 10
17.07.2019 07:00:00 21,0 13,0 8 4 NNW 10
17.07.2019 06:00:00 21,0 13,0 9 5 N 10
17.07.2019 05:00:00 21,0 15,0 8 4 N 10
17.07.2019 04:00:00 22,0 15,0 4 2 NNW 10
17.07.2019 03:00:00 22,0 16,0 5 3 N 10
17.07.2019 02:00:00 23,0 17,0 4 2 NNW 10
17.07.2019 01:00:00 24,0 17,0 4 2 - 10
17.07.2019 00:00:00 25,0 17,0 4 2 - 10
16.07.2019 23:00:00 25,0 18,0 2 1 - 10
16.07.2019 22:00:00 26,0 18,0 8 4 SSW 10
16.07.2019 21:00:00 26,0 18,0 13 7 SW 10
16.07.2019 20:00:00 27,0 18,0 16 9 SW 10
16.07.2019 19:00:00 28,0 17,0 21 11 SW 10
16.07.2019 18:00:00 29,0 17,0 22 12 SSW 10
16.07.2019 17:00:00 29,0 17,0 24 13 SSW 10
16.07.2019 16:00:00 30,0 15,0 24 13 SSW 10
16.07.2019 15:00:00 30,0 14,0 28 15 SSW 10
16.07.2019 14:00:00 31,0 14,0 16 9 SSW 10
16.07.2019 13:00:00 31,0 12,0 9 5 - 10
16.07.2019 12:00:00 30,0 12,0 5 3 SSE 10
16.07.2019 11:00:00 29,0 12,0 5 3 N 10
16.07.2019 10:00:00 28,0 13,0 5 3 SSE 10
16.07.2019 09:00:00 26,0 14,0 4 2 - 10
16.07.2019 08:00:00 23,0 12,0 5 3 N 10
16.07.2019 07:00:00 20,0 13,0 9 5 N 10
16.07.2019 06:00:00 20,0 14,0 8 4 N 10
16.07.2019 05:00:00 21,0 15,0 9 5 N 10
16.07.2019 04:00:00 21,0 15,0 9 5 N 10
16.07.2019 03:00:00 22,0 15,0 9 5 NNW 10
16.07.2019 02:00:00 22,0 16,0 8 4 N 10

tt = temperature
td = dewpoint
ff = wind speed
dd = wind direction
vv = visibility

Next stations